Time;durP1;ratioP1;P1;durP2;ratioP2;P2;SDS_P1;SDS_P2;PMS_P1;PMS_P2;Temp;Humidity;BMP_temperature;BMP_pressure;BME280_temperature;BME280_humidity;BME280_pressure;Samples;Min_cycle;Max_cycle;Signal;HPM_P1;HPM_P2
2021/09/08 00:00:31;;;;;;;;;;;;;;;23.68;40.23;101738.41;4916239;29;20336;-62
2021/09/08 00:02:59;;;;;;;;;;;;;;;23.68;40.38;101739.28;4916192;29;19926;-62
2021/09/08 00:05:26;;;;;;;;;;;;;;;23.69;40.19;101743.63;4916588;29;19923;-62
2021/09/08 00:07:53;;;;;;;;;;;;;;;23.69;39.83;101738.25;4916238;29;20420;-62
2021/09/08 00:10:19;;;;;;;;;;;;;;;23.69;39.95;101738.25;4916349;29;19923;-62
2021/09/08 00:12:46;;;;;;;;;;;;;;;23.69;40.09;101740.09;4916153;29;19983;-62
2021/09/08 00:15:13;;;;;;;;;;;;;;;23.69;39.78;101734.75;4916303;29;19934;-62
2021/09/08 00:17:40;;;;;;;;;;;;;;;23.70;39.92;101731.06;4916195;29;19923;-61
2021/09/08 00:20:07;;;;;;;;;;;;;;;23.72;39.75;101731.75;4916121;29;19930;-61
2021/09/08 00:22:33;;;;;;;;;;;;;;;23.71;39.40;101728.25;4932794;29;19946;-62
2021/09/08 00:25:00;;;;;;;;;;;;;;;23.69;39.46;101726.72;4936278;29;19923;-61
2021/09/08 00:27:26;;;;;;;;;;;;;;;23.71;39.54;101725.56;4927499;29;19985;-61
2021/09/08 00:29:53;;;;;;;;;;;;;;;23.71;39.40;101722.06;4930426;29;19959;-61
2021/09/08 00:32:20;;;;;;;;;;;;;;;23.70;39.47;101726.53;4937042;29;19922;-62
2021/09/08 00:34:46;;;;;;;;;;;;;;;23.69;39.43;101715.97;4936260;29;19923;-61
2021/09/08 00:37:13;;;;;;;;;;;;;;;23.71;39.14;101722.06;4929355;29;19922;-61
2021/09/08 00:39:39;;;;;;;;;;;;;;;23.68;39.57;101723.19;4936989;29;19994;-61
2021/09/08 00:42:13;;;;;;;;;;;;;;;23.68;39.55;101723.19;4938197;29;19926;-61
2021/09/08 00:44:40;;;;;;;;;;;;;;;23.69;39.42;101719.50;4924628;29;20350;-61
2021/09/08 00:47:06;;;;;;;;;;;;;;;23.68;39.63;101719.66;4919015;29;20447;-61
2021/09/08 00:49:33;;;;;;;;;;;;;;;23.67;39.50;101718.81;4918975;29;19927;-61
2021/09/08 00:52:03;;;;;;;;;;;;;;;23.63;39.63;101718.28;4918846;29;19923;-62
2021/09/08 00:54:30;;;;;;;;;;;;;;;23.63;39.47;101714.75;4919058;29;19923;-61
2021/09/08 00:56:57;;;;;;;;;;;;;;;23.62;39.62;101711.22;4919018;29;19923;-61
2021/09/08 00:59:24;;;;;;;;;;;;;;;23.62;39.81;101721.09;4918919;29;19926;-61
2021/09/08 01:01:50;;;;;;;;;;;;;;;23.62;39.52;101724.63;4918837;29;19926;-61
2021/09/08 01:04:18;;;;;;;;;;;;;;;23.60;39.66;101715.91;4918710;29;20379;-61
2021/09/08 01:06:44;;;;;;;;;;;;;;;23.62;39.61;101713.91;4918725;29;19923;-61
2021/09/08 01:09:11;;;;;;;;;;;;;;;23.60;39.90;101718.59;4918488;29;20368;-61
2021/09/08 01:11:38;;;;;;;;;;;;;;;23.57;39.80;101707.31;4917395;29;20344;-61
2021/09/08 01:14:04;;;;;;;;;;;;;;;23.55;39.97;101711.97;4931651;29;19929;-61
2021/09/08 01:16:31;;;;;;;;;;;;;;;23.56;40.14;101719.03;4937716;29;19922;-61
2021/09/08 01:18:57;;;;;;;;;;;;;;;23.54;40.13;101719.19;4937383;29;20360;-61
2021/09/08 01:21:24;;;;;;;;;;;;;;;23.51;40.15;101724.81;4924786;29;19922;-62
2021/09/08 01:23:50;;;;;;;;;;;;;;;23.52;40.21;101731.88;4918337;29;19923;-61
2021/09/08 01:26:17;;;;;;;;;;;;;;;23.52;40.00;101728.34;4918470;29;19951;-61
2021/09/08 01:28:43;;;;;;;;;;;;;;;23.52;40.22;101726.50;4918200;29;19978;-61
2021/09/08 01:31:10;;;;;;;;;;;;;;;23.53;40.05;101728.19;4918147;29;19970;-61
2021/09/08 01:33:37;;;;;;;;;;;;;;;23.51;40.03;101730.16;4918248;29;19923;-61
2021/09/08 01:36:03;;;;;;;;;;;;;;;23.52;40.15;101717.63;4918119;29;19978;-61
2021/09/08 01:38:30;;;;;;;;;;;;;;;23.50;40.21;101720.44;4918226;29;19923;-61
2021/09/08 01:40:56;;;;;;;;;;;;;;;23.48;39.90;101717.09;4920107;29;20377;-61
2021/09/08 01:43:24;;;;;;;;;;;;;;;23.50;40.10;101717.75;4937049;29;19930;-61
2021/09/08 01:45:51;;;;;;;;;;;;;;;23.47;39.95;101715.41;4937114;29;19929;-61
2021/09/08 01:48:18;;;;;;;;;;;;;;;23.45;39.71;101712.88;4919541;29;20010;-61
2021/09/08 01:50:44;;;;;;;;;;;;;;;23.45;40.06;101717.38;4917447;29;19976;-61
2021/09/08 01:53:12;;;;;;;;;;;;;;;23.46;39.75;101716.38;4918036;29;19978;-61
2021/09/08 01:55:39;;;;;;;;;;;;;;;23.45;39.81;101706.66;4917843;29;19979;-61
2021/09/08 01:58:05;;;;;;;;;;;;;;;23.45;39.84;101707.50;4917741;29;20368;-62
2021/09/08 02:00:31;;;;;;;;;;;;;;;23.44;39.61;101705.81;4917703;29;19978;-61
2021/09/08 02:02:58;;;;;;;;;;;;;;;23.46;39.67;101702.97;4917757;29;19929;-61
2021/09/08 02:05:25;;;;;;;;;;;;;;;23.46;39.39;101698.50;4917791;29;19923;-61
2021/09/08 02:07:52;;;;;;;;;;;;;;;23.46;39.47;101703.84;4923761;29;19931;-61
2021/09/08 02:10:18;;;;;;;;;;;;;;;23.46;39.30;101700.31;4936573;29;19927;-61
2021/09/08 02:12:45;;;;;;;;;;;;;;;23.48;39.20;101692.97;4936445;29;20315;-61
2021/09/08 02:15:12;;;;;;;;;;;;;;;23.49;38.85;101697.34;4921694;29;19979;-61
2021/09/08 02:17:38;;;;;;;;;;;;;;;23.53;38.94;101695.19;4917399;29;19951;-61
2021/09/08 02:20:05;;;;;;;;;;;;;;;23.54;38.84;101691.53;4917480;29;20055;-61
2021/09/08 02:22:32;;;;;;;;;;;;;;;23.54;38.66;101691.53;4917462;29;20120;-61
2021/09/08 02:24:58;;;;;;;;;;;;;;;23.55;38.82;101693.22;4917263;29;19926;-61
2021/09/08 02:27:27;;;;;;;;;;;;;;;23.55;38.76;101687.84;4917295;29;19923;-61
2021/09/08 02:29:53;;;;;;;;;;;;;;;23.57;38.53;101694.75;4916781;29;19923;-61
2021/09/08 02:32:20;;;;;;;;;;;;;;;23.56;38.47;101687.69;4917231;29;19923;-61
2021/09/08 02:34:46;;;;;;;;;;;;;;;23.57;38.51;101691.25;4917154;29;19926;-61
2021/09/08 02:37:13;;;;;;;;;;;;;;;23.57;38.39;101691.25;4917227;29;19922;-61
2021/09/08 02:39:39;;;;;;;;;;;;;;;23.57;38.15;101689.38;4917208;29;19922;-61
2021/09/08 02:42:07;;;;;;;;;;;;;;;23.57;38.14;101691.25;4917200;29;19927;-61
2021/09/08 02:44:34;;;;;;;;;;;;;;;23.57;38.47;101684.03;4917005;29;19923;-61
2021/09/08 02:47:00;;;;;;;;;;;;;;;23.57;38.32;101685.88;4916807;29;19950;-61
2021/09/08 02:49:27;;;;;;;;;;;;;;;23.57;38.15;101685.88;4916724;29;19978;-62
2021/09/08 02:51:53;;;;;;;;;;;;;;;23.55;38.30;101683.31;4916717;29;19930;-61
2021/09/08 02:54:20;;;;;;;;;;;;;;;23.58;38.20;101690.22;4917088;29;20044;-61
2021/09/08 02:56:46;;;;;;;;;;;;;;;23.58;38.14;101688.41;4916887;29;19927;-61
2021/09/08 02:59:13;;;;;;;;;;;;;;;23.58;38.10;101677.69;4916863;29;19938;-61
2021/09/08 03:01:39;;;;;;;;;;;;;;;23.58;37.90;101683.03;4915078;29;20368;-61
2021/09/08 03:04:06;;;;;;;;;;;;;;;23.60;37.96;101680.22;4927958;29;19923;-61
2021/09/08 03:06:33;;;;;;;;;;;;;;;23.59;38.03;101684.75;4932411;29;20005;-61
2021/09/08 03:08:59;;;;;;;;;;;;;;;23.58;38.23;101688.41;4931909;29;19922;-61
2021/09/08 03:11:26;;;;;;;;;;;;;;;23.58;37.90;101683.03;4922607;29;20005;-61
2021/09/08 03:13:53;;;;;;;;;;;;;;;23.58;37.91;101685.72;4927400;29;20401;-62
2021/09/08 03:16:20;;;;;;;;;;;;;;;23.59;38.22;101683.88;4913586;29;19978;-61
2021/09/08 03:18:47;;;;;;;;;;;;;;;23.57;38.18;101686.72;4913391;29;19923;-61
2021/09/08 03:21:13;;;;;;;;;;;;;;;23.57;38.22;101686.72;4913595;29;20627;-61
2021/09/08 03:23:40;;;;;;;;;;;;;;;23.57;38.15;101686.72;4913609;29;19926;-61
2021/09/08 03:26:07;;;;;;;;;;;;;;;23.56;37.93;101693.06;4913364;29;19926;-61
2021/09/08 03:28:33;;;;;;;;;;;;;;;23.57;38.00;101691.25;4913166;29;19927;-61
2021/09/08 03:31:00;;;;;;;;;;;;;;;23.55;38.13;101683.31;4913089;29;20031;-61
2021/09/08 03:33:27;;;;;;;;;;;;;;;23.54;37.76;101691.53;4913106;29;19927;-61
2021/09/08 03:35:55;;;;;;;;;;;;;;;23.51;38.02;101689.16;4913506;29;20726;-62
2021/09/08 03:38:21;;;;;;;;;;;;;;;23.50;38.13;101690.13;4913269;29;19930;-61
2021/09/08 03:40:48;;;;;;;;;;;;;;;23.47;38.33;101686.75;4913169;29;19927;-61
2021/09/08 03:43:14;;;;;;;;;;;;;;;23.44;38.08;101687.06;4913201;29;19933;-61
2021/09/08 03:45:41;;;;;;;;;;;;;;;23.42;38.24;101685.53;4913041;29;19926;-62
2021/09/08 03:48:07;;;;;;;;;;;;;;;23.39;38.37;101686.66;4913260;29;19979;-62
2021/09/08 03:50:34;;;;;;;;;;;;;;;23.37;38.10;101683.28;4913109;29;20328;-61
2021/09/08 03:53:00;;;;;;;;;;;;;;;23.36;38.35;101681.59;4913015;29;19931;-61
2021/09/08 03:55:27;;;;;;;;;;;;;;;23.33;38.52;101678.38;4912992;29;19923;-61
2021/09/08 03:57:53;;;;;;;;;;;;;;;23.31;38.44;101691.91;4912814;29;19929;-61
2021/09/08 04:00:20;;;;;;;;;;;;;;;23.28;38.65;101685.00;4913393;29;19950;-61
2021/09/08 04:02:46;;;;;;;;;;;;;;;23.26;38.69;101684.34;4912804;29;20003;-61
2021/09/08 04:05:13;;;;;;;;;;;;;;;23.24;38.66;101691.66;4912986;29;20928;-61
2021/09/08 04:07:40;;;;;;;;;;;;;;;23.22;38.75;101690.13;4912933;29;19931;-61
2021/09/08 04:10:06;;;;;;;;;;;;;;;23.20;38.91;101686.75;4912860;29;19931;-61
2021/09/08 04:12:33;;;;;;;;;;;;;;;23.19;38.92;101685.91;4914299;29;20410;-61
2021/09/08 04:14:59;;;;;;;;;;;;;;;23.16;38.71;101694.25;4916430;29;19923;-61
2021/09/08 04:17:26;;;;;;;;;;;;;;;23.14;39.06;101693.50;4916442;29;19926;-61
2021/09/08 04:19:53;;;;;;;;;;;;;;;23.13;39.14;101691.81;4916416;29;19933;-61
2021/09/08 04:22:19;;;;;;;;;;;;;;;23.09;39.40;101690.44;4916678;29;19930;-61
2021/09/08 04:24:46;;;;;;;;;;;;;;;23.05;39.10;101689.88;4916469;29;19923;-61
2021/09/08 04:27:12;;;;;;;;;;;;;;;22.99;39.50;101691.31;4916554;29;19971;-61
2021/09/08 04:29:39;;;;;;;;;;;;;;;22.92;39.47;101687.50;4916118;29;19923;-63
2021/09/08 04:32:05;;;;;;;;;;;;;;;22.91;39.55;101687.66;4916358;29;19934;-63
2021/09/08 04:34:32;;;;;;;;;;;;;;;22.89;39.85;101692.31;4916060;29;19923;-61
2021/09/08 04:36:59;;;;;;;;;;;;;;;22.86;39.98;101688.09;4916014;29;19923;-61
2021/09/08 04:39:26;;;;;;;;;;;;;;;22.86;39.99;101695.28;4915810;29;19971;-61
2021/09/08 04:41:52;;;;;;;;;;;;;;;22.82;39.93;101689.38;4916054;29;20384;-61
2021/09/08 04:44:19;;;;;;;;;;;;;;;22.81;40.37;101696.53;4916102;29;19979;-61
2021/09/08 04:46:45;;;;;;;;;;;;;;;22.81;40.20;101693.03;4915844;29;19923;-61
2021/09/08 04:49:12;;;;;;;;;;;;;;;22.78;40.43;101696.00;4915649;29;19923;-61
2021/09/08 04:51:39;;;;;;;;;;;;;;;22.76;40.19;101690.78;4915551;29;20387;-61
2021/09/08 04:54:05;;;;;;;;;;;;;;;22.75;40.28;101691.75;4915572;29;19938;-61
2021/09/08 04:56:32;;;;;;;;;;;;;;;22.76;40.44;101693.47;4915965;29;19923;-61
2021/09/08 04:58:58;;;;;;;;;;;;;;;22.76;40.46;101693.47;4919221;29;19923;-61
2021/09/08 05:01:25;;;;;;;;;;;;;;;22.76;40.50;101695.31;4923971;29;19923;-61
2021/09/08 05:03:52;;;;;;;;;;;;;;;22.75;40.50;101690.94;4934650;29;19926;-61
2021/09/08 05:06:18;;;;;;;;;;;;;;;22.77;40.59;101694.31;4934484;29;19974;-61
2021/09/08 05:08:45;;;;;;;;;;;;;;;22.78;40.48;101704.03;4918766;29;19923;-61
2021/09/08 05:11:12;;;;;;;;;;;;;;;22.80;40.48;101691.34;4915424;29;19950;-61
2021/09/08 05:13:39;;;;;;;;;;;;;;;22.81;40.56;101693.03;4915582;29;19975;-61
2021/09/08 05:16:06;;;;;;;;;;;;;;;22.84;40.58;101695.41;4915373;29;19979;-61
2021/09/08 05:18:33;;;;;;;;;;;;;;;22.88;40.37;101702.19;4915318;29;19927;-61
2021/09/08 05:21:00;;;;;;;;;;;;;;;22.91;40.28;101707.22;4915366;29;20372;-61
2021/09/08 05:23:26;;;;;;;;;;;;;;;22.91;40.56;101704.56;4914973;29;19994;-61
2021/09/08 05:25:53;;;;;;;;;;;;;;;22.96;40.24;101707.66;4914838;29;19923;-61
2021/09/08 05:28:22;;;;;;;;;;;;;;;22.96;40.31;101701.47;4915237;29;19923;-61
2021/09/08 05:30:48;;;;;;;;;;;;;;;22.99;40.48;101706.50;4914861;29;19934;-61
2021/09/08 05:33:15;;;;;;;;;;;;;;;23.05;40.27;101708.59;4924798;29;19969;-61
2021/09/08 05:35:42;;;;;;;;;;;;;;;23.09;40.25;101711.84;4915120;29;20184;-61
2021/09/08 05:38:08;;;;;;;;;;;;;;;23.13;40.04;101707.88;4914900;29;19926;-61
2021/09/08 05:40:35;;;;;;;;;;;;;;;23.17;40.19;101706.63;4914763;29;19930;-61
2021/09/08 05:43:01;;;;;;;;;;;;;;;23.21;39.93;101707.16;4914665;29;19923;-61
2021/09/08 05:45:28;;;;;;;;;;;;;;;23.25;40.04;101709.41;4914853;29;19923;-61
2021/09/08 05:47:54;;;;;;;;;;;;;;;23.28;39.71;101709.13;4914353;29;19951;-61
2021/09/08 05:50:21;;;;;;;;;;;;;;;23.31;40.08;101711.53;4914679;29;19923;-61
2021/09/08 05:52:47;;;;;;;;;;;;;;;23.35;39.93;101717.44;4914719;29;19923;-61
2021/09/08 05:55:14;;;;;;;;;;;;;;;23.37;39.83;101718.09;4914507;29;19931;-61
2021/09/08 05:57:40;;;;;;;;;;;;;;;23.38;39.93;101711.75;4914566;29;19979;-61
2021/09/08 06:00:07;;;;;;;;;;;;;;;23.40;39.74;101708.94;4914759;29;19923;-61
2021/09/08 06:02:34;;;;;;;;;;;;;;;23.41;39.97;101714.13;4919906;29;20431;-61
2021/09/08 06:05:05;;;;;;;;;;;;;;;23.44;40.08;101713.03;4914368;29;19965;-61
2021/09/08 06:07:32;;;;;;;;;;;;;;;23.43;39.65;101714.00;4914396;29;19930;-61
2021/09/08 06:09:58;;;;;;;;;;;;;;;23.41;39.93;101706.09;4914195;29;19930;-61
2021/09/08 06:12:25;;;;;;;;;;;;;;;23.32;40.30;101712.34;4914347;29;19930;-61
2021/09/08 06:14:52;;;;;;;;;;;;;;;23.26;40.40;101708.44;4914122;29;20383;-61
2021/09/08 06:17:18;;;;;;;;;;;;;;;23.26;40.34;101705.75;4916056;29;19938;-62
2021/09/08 06:19:47;;;;;;;;;;;;;;;23.28;40.38;101703.75;4922441;29;19938;-63
2021/09/08 06:22:17;;;;;;;;;;;;;;;23.38;40.28;101701.06;4914132;29;19923;-64
2021/09/08 06:24:44;;;;;;;;;;;;;;;23.53;40.26;101709.44;4913958;29;19934;-63
2021/09/08 06:27:10;;;;;;;;;;;;;;;23.66;39.79;101709.09;4913494;29;19927;-63
2021/09/08 06:29:37;;;;;;;;;;;;;;;23.79;39.58;101704.22;4914078;29;20010;-63
2021/09/08 06:32:04;;;;;;;;;;;;;;;23.95;39.29;101710.78;4913735;29;19922;-63
2021/09/08 06:34:30;;;;;;;;;;;;;;;24.05;39.03;101703.50;4913937;29;19978;-63
2021/09/08 06:36:57;;;;;;;;;;;;;;;24.19;38.77;101704.81;4912880;29;19922;-63
2021/09/08 06:39:23;;;;;;;;;;;;;;;24.29;38.61;101702.91;4913896;29;19926;-63
2021/09/08 06:41:51;;;;;;;;;;;;;;;24.40;38.48;101701.81;4915686;29;19923;-64
2021/09/08 06:44:18;;;;;;;;;;;;;;;24.48;38.43;101698.38;4927858;29;19922;-61
2021/09/08 06:46:44;;;;;;;;;;;;;;;24.57;38.15;101700.13;4931112;29;20398;-61
2021/09/08 06:49:11;;;;;;;;;;;;;;;24.63;38.38;101704.00;4931014;29;19927;-61
2021/09/08 06:51:38;;;;;;;;;;;;;;;24.72;38.19;101708.47;4913102;29;20261;-62
2021/09/08 06:54:04;;;;;;;;;;;;;;;24.78;37.77;101705.16;4913221;29;19927;-61
2021/09/08 06:56:31;;;;;;;;;;;;;;;24.86;37.80;101703.53;4913464;29;19926;-62
2021/09/08 06:58:57;;;;;;;;;;;;;;;24.90;37.78;101700.38;4916402;29;20288;-61
2021/09/08 07:01:24;;;;;;;;;;;;;;;25.04;37.49;101695.41;4931688;29;19926;-61
2021/09/08 07:03:51;;;;;;;;;;;;;;;25.14;37.45;101695.28;4931734;29;19923;-61
2021/09/08 07:06:20;;;;;;;;;;;;;;;25.27;37.09;101693.03;4924773;29;20380;-61
2021/09/08 07:08:47;;;;;;;;;;;;;;;25.43;36.97;101690.44;4931738;29;19923;-61
2021/09/08 07:11:13;;;;;;;;;;;;;;;25.53;36.57;101692.97;4931694;29;19926;-61
2021/09/08 07:13:40;;;;;;;;;;;;;;;25.67;36.51;101694.19;4932193;29;19930;-61
2021/09/08 07:16:06;;;;;;;;;;;;;;;25.79;36.33;101697.44;4932116;29;19969;-62
2021/09/08 07:18:33;;;;;;;;;;;;;;;25.82;36.02;101698.94;4932211;29;19922;-61
2021/09/08 07:21:00;;;;;;;;;;;;;;;25.90;35.98;101699.81;4931868;29;20021;-61
2021/09/08 07:23:26;;;;;;;;;;;;;;;26.02;35.75;101691.44;4931916;29;20406;-62
2021/09/08 07:25:53;;;;;;;;;;;;;;;26.06;35.92;101693.63;4931918;29;19977;-61
2021/09/08 07:28:19;;;;;;;;;;;;;;;25.91;36.08;101696.13;4932139;29;19970;-61
2021/09/08 07:30:48;;;;;;;;;;;;;;;25.79;36.47;101696.56;4931470;29;20044;-61
2021/09/08 07:33:15;;;;;;;;;;;;;;;25.63;36.67;101703.59;4916127;29;19962;-61
2021/09/08 07:35:41;;;;;;;;;;;;;;;25.73;36.29;101696.22;4912505;29;19934;-62
2021/09/08 07:38:08;;;;;;;;;;;;;;;25.98;35.71;101700.81;4924521;29;20017;-61
2021/09/08 07:40:34;;;;;;;;;;;;;;;26.26;35.27;101700.53;4931180;29;20394;-61
2021/09/08 07:43:01;;;;;;;;;;;;;;;26.46;34.84;101703.75;4929966;29;19927;-62
2021/09/08 07:45:27;;;;;;;;;;;;;;;26.58;34.51;101699.72;4928561;29;19970;-66
2021/09/08 07:47:54;;;;;;;;;;;;;;;26.69;34.17;101706.59;4932618;29;20443;-61
2021/09/08 07:50:20;;;;;;;;;;;;;;;26.75;34.02;101702.41;4918090;29;19926;-63
2021/09/08 07:52:48;;;;;;;;;;;;;;;26.84;33.66;101696.00;4930428;29;20376;-62
2021/09/08 07:55:15;;;;;;;;;;;;;;;26.91;33.54;101705.06;4931151;29;19929;-61
2021/09/08 07:57:42;;;;;;;;;;;;;;;27.00;33.24;101700.50;4924121;29;20391;-61
2021/09/08 08:00:09;;;;;;;;;;;;;;;27.02;32.84;101702.03;4915735;29;19923;-62
2021/09/08 08:02:46;;;;;;;;;;;;;;;27.13;32.30;101708.88;4934550;29;19923;-62
2021/09/08 08:05:14;;;;;;;;;;;;;;;27.21;32.44;101699.94;4935511;29;19929;-65
2021/09/08 08:07:41;;;;;;;;;;;;;;;27.29;31.94;101701.78;4934233;29;19981;-62
2021/09/08 08:10:08;;;;;;;;;;;;;;;27.41;31.58;101702.25;4934140;29;19977;-62
2021/09/08 08:12:35;;;;;;;;;;;;;;;27.50;31.43;101704.75;4932800;29;19927;-62
2021/09/08 08:15:02;;;;;;;;;;;;;;;27.57;31.35;101699.47;4932519;29;19922;-62
2021/09/08 08:17:29;;;;;;;;;;;;;;;27.62;31.05;101705.19;4934445;29;20443;-63
2021/09/08 08:19:56;;;;;;;;;;;;;;;27.79;30.93;101705.09;4934308;29;19923;-62
2021/09/08 08:22:22;;;;;;;;;;;;;;;27.92;30.67;101705.34;4934396;29;19922;-61
2021/09/08 08:24:49;;;;;;;;;;;;;;;28.07;30.58;101710.00;4934854;29;19957;-61
2021/09/08 08:27:16;;;;;;;;;;;;;;;28.21;29.89;101711.09;4935145;29;19923;-61
2021/09/08 08:29:42;;;;;;;;;;;;;;;28.38;29.61;101709.09;4934625;29;20386;-61
2021/09/08 08:32:09;;;;;;;;;;;;;;;28.45;29.63;101710.03;4922649;29;19923;-61
2021/09/08 08:34:44;;;;;;;;;;;;;;;28.50;29.38;101708.47;4915749;29;20410;-70
2021/09/08 08:37:25;;;;;;;;;;;;;;;28.65;29.04;101710.38;4915896;29;20396;-62
2021/09/08 08:40:03;;;;;;;;;;;;;;;28.80;28.78;101705.84;4916711;29;19927;-71
2021/09/08 08:42:31;;;;;;;;;;;;;;;28.82;28.71;101711.94;4914547;29;19923;-61
2021/09/08 08:44:58;;;;;;;;;;;;;;;28.94;28.58;101706.06;4915270;29;20315;-62
2021/09/08 08:47:24;;;;;;;;;;;;;;;28.94;28.18;101706.91;4915504;29;19927;-62
2021/09/08 08:49:53;;;;;;;;;;;;;;;29.01;28.15;101709.69;4914545;29;19923;-60
2021/09/08 08:52:19;;;;;;;;;;;;;;;29.10;28.02;101699.63;4917259;29;19927;-60
2021/09/08 08:54:46;;;;;;;;;;;;;;;29.17;27.73;101709.50;4928493;29;19946;-60
2021/09/08 08:57:13;;;;;;;;;;;;;;;29.33;27.25;101702.25;4926797;29;19922;-60
2021/09/08 08:59:40;;;;;;;;;;;;;;;29.46;27.14;101707.81;4925350;29;19923;-61
2021/09/08 09:02:16;;;;;;;;;;;;;;;29.45;27.23;101703.44;4915160;29;19923;-59
2021/09/08 09:04:43;;;;;;;;;;;;;;;29.63;26.67;101699.50;4929197;29;19923;-62
2021/09/08 09:07:30;;;;;;;;;;;;;;;29.85;26.53;101697.63;4930786;29;19978;-61
2021/09/08 09:09:58;;;;;;;;;;;;;;;30.03;26.47;101693.69;4914293;29;19923;-61
2021/09/08 09:12:33;;;;;;;;;;;;;;;30.15;26.52;101694.03;4912841;29;19938;-62
2021/09/08 09:15:02;;;;;;;;;;;;;;;30.29;25.96;101696.63;4913751;29;20443;-61
2021/09/08 09:17:30;;;;;;;;;;;;;;;30.41;25.53;101687.97;4914765;29;20026;-61
2021/09/08 09:19:57;;;;;;;;;;;;;;;30.55;25.75;101688.94;4915147;29;19927;-61
2021/09/08 09:22:24;;;;;;;;;;;;;;;30.72;25.66;101687.63;5097199;23;19933;-64
2021/09/08 09:24:52;;;;;;;;;;;;;;;30.92;25.28;101679.63;4933758;29;19922;-63
2021/09/08 09:27:19;;;;;;;;;;;;;;;31.03;25.20;101689.06;4933639;29;19939;-64
2021/09/08 09:29:46;;;;;;;;;;;;;;;31.17;25.04;101679.13;4932763;29;19922;-63
2021/09/08 09:32:12;;;;;;;;;;;;;;;31.34;25.04;101676.06;4933065;29;19978;-62
2021/09/08 09:34:40;;;;;;;;;;;;;;;31.40;24.51;101680.69;4931372;29;19927;-62
2021/09/08 09:37:07;;;;;;;;;;;;;;;31.47;24.80;101681.56;4926131;29;19923;-61
2021/09/08 09:39:34;;;;;;;;;;;;;;;31.51;24.25;101668.44;4927364;29;19927;-61
2021/09/08 09:42:05;;;;;;;;;;;;;;;31.63;24.40;101665.97;4921154;29;19934;-60
2021/09/08 09:44:32;;;;;;;;;;;;;;;31.73;23.92;101667.28;4913682;29;20325;-62
2021/09/08 09:47:02;;;;;;;;;;;;;;;31.87;24.11;101664.56;4916471;29;19923;-61
2021/09/08 09:49:33;;;;;;;;;;;;;;;32.04;23.65;101657.69;4923043;29;19930;-63
2021/09/08 09:52:03;;;;;;;;;;;;;;;32.14;23.75;101664.56;4932621;29;19929;-62
2021/09/08 09:54:30;;;;;;;;;;;;;;;32.26;23.53;101654.78;4924775;29;19931;-60
2021/09/08 09:56:56;;;;;;;;;;;;;;;32.43;23.41;101665.22;4924319;29;20380;-61
2021/09/08 09:59:23;;;;;;;;;;;;;;;32.53;23.15;101652.91;4933009;29;19927;-61
2021/09/08 10:01:49;;;;;;;;;;;;;;;32.66;23.00;101659.34;4919798;29;20295;-62
2021/09/08 10:04:16;;;;;;;;;;;;;;;32.81;22.61;101646.38;4919939;29;19923;-62
2021/09/08 10:06:44;;;;;;;;;;;;;;;32.85;23.05;101649.53;4932722;29;19922;-61
2021/09/08 10:09:12;;;;;;;;;;;;;;;32.93;22.42;101651.97;4932779;29;19929;-61
2021/09/08 10:11:44;;;;;;;;;;;;;;;33.02;22.41;101647.97;4931261;29;20009;-61
2021/09/08 10:14:12;;;;;;;;;;;;;;;33.01;22.71;101637.31;4932724;29;19923;-64
2021/09/08 10:16:43;;;;;;;;;;;;;;;33.17;22.58;101638.72;4922272;29;20300;-63
2021/09/08 10:19:10;;;;;;;;;;;;;;;33.38;22.41;101643.03;4913721;29;20018;-62
2021/09/08 10:21:36;;;;;;;;;;;;;;;33.47;22.21;101630.84;4913519;29;19926;-60
2021/09/08 10:24:04;;;;;;;;;;;;;;;33.56;22.01;101633.28;4913665;29;19927;-62
2021/09/08 10:26:33;;;;;;;;;;;;;;;33.59;21.68;101632.88;4913609;29;19922;-61
2021/09/08 10:29:07;;;;;;;;;;;;;;;33.73;21.73;101626.28;4913021;29;19958;-60
2021/09/08 10:31:37;;;;;;;;;;;;;;;33.80;21.18;101618.91;4913398;29;19927;-61
2021/09/08 10:34:04;;;;;;;;;;;;;;;33.65;21.51;101619.22;4913566;29;20395;-63
2021/09/08 10:36:32;;;;;;;;;;;;;;;33.65;21.58;101619.22;4920482;29;19929;-63
2021/09/08 10:39:18;;;;;;;;;;;;;;;33.88;21.02;101616.97;4927064;29;19942;-62
2021/09/08 10:41:44;;;;;;;;;;;;;;;34.09;20.86;101615.75;4926067;29;19931;-61
2021/09/08 10:44:12;;;;;;;;;;;;;;;34.22;21.03;101620.25;4931921;29;19942;-63
2021/09/08 10:46:48;;;;;;;;;;;;;;;34.15;20.62;101614.88;4920945;29;19927;-63
2021/09/08 10:49:34;;;;;;;;;;;;;;;34.22;20.68;101612.91;4914217;29;19927;-62
2021/09/08 10:52:00;;;;;;;;;;;;;;;34.38;20.31;101618.88;4930658;29;19969;-62
2021/09/08 10:54:27;;;;;;;;;;;;;;;34.46;20.07;101611.22;4931930;29;19927;-63
2021/09/08 10:56:53;;;;;;;;;;;;;;;34.59;20.42;101599.34;4931770;29;19934;-66
2021/09/08 10:59:20;;;;;;;;;;;;;;;34.65;19.89;101594.88;4932421;29;19927;-63
2021/09/08 11:01:50;;;;;;;;;;;;;;;34.65;19.83;101598.44;4931967;29;20747;-63
2021/09/08 11:04:20;;;;;;;;;;;;;;;34.77;20.03;101600.41;4932480;29;19933;-63
2021/09/08 11:06:48;;;;;;;;;;;;;;;34.76;19.61;101588.66;4929829;29;19927;-62
2021/09/08 11:09:18;;;;;;;;;;;;;;;34.79;19.53;101582.75;4932050;29;19926;-63
2021/09/08 11:11:58;;;;;;;;;;;;;;;34.75;19.72;101589.72;4931155;29;19935;-63
2021/09/08 11:14:43;;;;;;;;;;;;;;;34.87;19.67;101584.38;4932168;29;19931;-63
2021/09/08 11:17:18;;;;;;;;;;;;;;;34.90;19.79;101586.63;4932053;29;19922;-64
2021/09/08 11:19:48;;;;;;;;;;;;;;;35.03;19.87;101587.50;4931703;29;19986;-62
2021/09/08 11:22:17;;;;;;;;;;;;;;;35.10;19.60;101585.53;4931445;29;19926;-63
2021/09/08 11:24:44;;;;;;;;;;;;;;;35.02;19.19;101575.78;4929065;29;19929;-63
2021/09/08 11:27:24;;;;;;;;;;;;;;;34.91;19.72;101579.28;4931679;29;19923;-69
2021/09/08 11:30:00;;;;;;;;;;;;;;;34.69;20.20;101579.75;4930988;29;19923;-66
2021/09/08 11:32:26;;;;;;;;;;;;;;;34.63;20.31;101578.75;4927236;29;19945;-64
2021/09/08 11:34:53;;;;;;;;;;;;;;;34.33;20.06;101582.25;4931310;29;19946;-63
2021/09/08 11:37:19;;;;;;;;;;;;;;;34.28;20.49;101584.75;4931914;29;19934;-65
2021/09/08 11:39:46;;;;;;;;;;;;;;;34.21;20.34;101581.28;4929863;29;20378;-61
2021/09/08 11:42:14;;;;;;;;;;;;;;;34.14;20.72;101583.22;4912538;29;19930;-66
2021/09/08 11:44:40;;;;;;;;;;;;;;;34.10;20.26;101580.13;4929619;29;20336;-62
2021/09/08 11:47:17;;;;;;;;;;;;;;;34.08;20.68;101584.97;4929795;29;20396;-63
2021/09/08 11:49:44;;;;;;;;;;;;;;;34.16;20.27;101573.78;4931081;29;19927;-63
2021/09/08 11:52:17;;;;;;;;;;;;;;;34.08;20.34;101581.41;4931662;29;19945;-61
2021/09/08 11:54:47;;;;;;;;;;;;;;;34.04;20.88;101575.56;4930907;29;19926;-61
2021/09/08 11:57:21;;;;;;;;;;;;;;;33.96;20.42;101581.31;4928858;29;20005;-63
2021/09/08 11:59:51;;;;;;;;;;;;;;;33.95;20.71;101571.47;4912598;29;20299;-66
2021/09/08 12:02:17;;;;;;;;;;;;;;;33.99;20.21;101575.41;4912394;29;19937;-64
2021/09/08 12:04:44;;;;;;;;;;;;;;;34.10;20.47;101568.41;4912401;29;19923;-62
2021/09/08 12:07:10;;;;;;;;;;;;;;;34.19;20.23;101567.03;4912515;29;20352;-62
2021/09/08 12:09:40;;;;;;;;;;;;;;;34.10;20.46;101566.50;4911496;29;19934;-62
2021/09/08 12:12:07;;;;;;;;;;;;;;;34.01;20.53;101565.94;4912257;29;19923;-61
2021/09/08 12:14:40;;;;;;;;;;;;;;;33.90;21.02;101561.22;4912452;29;19923;-62
2021/09/08 12:17:07;;;;;;;;;;;;;;;33.81;20.61;101557.13;4912601;29;19931;-62
2021/09/08 12:19:35;;;;;;;;;;;;;;;33.83;20.91;101555.03;4912517;29;19975;-61
2021/09/08 12:22:06;;;;;;;;;;;;;;;33.97;20.79;101536.69;4911907;29;20296;-62
2021/09/08 12:24:53;;;;;;;;;;;;;;;33.96;20.33;101546.72;4912529;29;19933;-62
2021/09/08 12:27:23;;;;;;;;;;;;;;;33.94;20.28;101537.97;4911827;29;20376;-61
2021/09/08 12:29:56;;;;;;;;;;;;;;;34.11;20.50;101537.38;4912599;29;19923;-65
2021/09/08 12:32:23;;;;;;;;;;;;;;;34.11;20.09;101540.09;4918927;29;19923;-62
2021/09/08 12:34:51;;;;;;;;;;;;;;;34.10;20.36;101525.63;4921080;29;19923;-62
2021/09/08 12:37:23;;;;;;;;;;;;;;;34.10;20.44;101533.81;4927023;29;19923;-63